Crocker, South Dakota
Current Conditions -  °F | °C
As of 9:00 AM on Saturday 20 Dec 2014 (Local Time) from KATY Reporting Station
Haze Haze  
Wind Chill: 18°   Ceiling: 300
Heat Index: 28°   Visibility: 1.7mi
Dew Point: 26°   Wind: 12mph
Humidity: 92%   Direction: 180°S
Pressure: 30.01"   Gusts: NA
Location:  45.0652°N, 97.616°W
Report Text: KATY 201500Z AUTO 18010KT 1 3/4SM BR OVC003 M02/M03 A3001 RMK AO2 T10221033
Loading
Personal Weather Stations






























Interactive Weather Map New forecast layout! Learn more

10-Day Weather Forecast

Advertisements
Track Severe Weather on mobile